aviador You're here:

PAEN Decoded Metar

KENAI in AK, USA
Report Time2017-07-24 19:53:00
UTC Time2017-07-24 20:48:46
Flight Rules vfr VFR
Wind210° at 16 Gusting to 21 kt
W.Decomp.*RWY 19: 16.0 kt HW 0.3 kt RCW
W.Rank210° ranks 5
Current wind is above 210° avg. (9.0)
Visibility9999 m
Phenomena:N/A
Clouds:N/A
Expected CloudBase > 1,600 ft AGL from Temp-Dew spread
CeilingNone
Temp16°C (ISA +1)
Dew Point12°C (77% RH)
AAT10.8°C
QNH1019 hPa
Density Alt213 ft
Elevation89 ft
Report Wrong Elevation
Raw Report
PAEN 241953Z 21016G21KT 10SM CLR 16/12 A3009=

Extra information for PAEN:More info

Metar Taf Metar & Taf Last 4 Metars F.Rules Stats Wind Profile Meteogram Temp Stats Airport Information Weather charts Add Link Nearby VenuesMetar ALERT Operation Metar Decoded Social comments

AIRNAV info for PAEN